LFMU/BZR METAR and TAF weather

Enter ICAO airport designator
Station Type Date Time Source
LFMU METAR 2020/08/05 16:00 UTC NOAA

LFMU 051600Z AUTO 15009KT 110V190 CAVOK 29/06 Q1012 NOSIG


Station Type Date Time Source
LFMU Decoded METAR 2020/08/05 16:00 UTC NOAA

Beziers / Vias, France (LFMU) 43-19N 003-21E
Aug 05, 2020 - 12:00 PM EDT / 2020.08.05 1600 UTC
Wind: from the SSE (150 degrees) at 10 MPH (9 KT) (direction variable):0
Visibility: greater than 7 mile(s):0
Temperature: 84 F (29 C)
Dew Point: 42 F (6 C)
Relative Humidity: 23%
Pressure (altimeter): 29.88 in. Hg (1012 hPa)
ob: LFMU 051600Z AUTO 15009KT 110V190 CAVOK 29/06 Q1012 NOSIG
cycle: 16

Station Type Date Time Source
LFMU TAF 2020/08/05 15:59 UTC NOAA

TAF LFMU 051400Z 0515/0615 16010KT CAVOK
BECMG 0518/0520 VRB03KT
BECMG 0611/0613 18010KT

Example: see airport list